KPKB/PKB METAR and TAF weather

Enter ICAO airport designator
Station Type Date Time Source
KPKB METAR 2024/04/18 07:53 UTC NOAA

KPKB 180753Z AUTO 00000KT CLR 14/13 A2998 RMK AO2 SLP146 T01390128 $


Station Type Date Time Source
KPKB Decoded METAR 2024/04/18 07:53 UTC NOAA

MID-OHIO VALLEY RGNL AIRPORT, WV, United States (KPKB) 39-20N 81-27W
Apr 18, 2024 - 03:53 AM EDT / 2024.04.18 0753 UTC
Wind: Calm:0
Sky conditions: clear
Temperature: 57.0 F (13.9 C)
Dew Point: 55.0 F (12.8 C)
Relative Humidity: 93%
Pressure (altimeter): 29.98 in. Hg (1015 hPa)
ob: KPKB 180753Z AUTO 00000KT CLR 14/13 A2998 RMK AO2 SLP146 T01390128
cycle: 8

Station Type Date Time Source
KPKB TAF 2024/04/18 06:22 UTC NOAA